createdAt,value
2023-05-08T00:01:31.295Z,34.41
2023-05-08T00:03:58.677Z,34.45
2023-05-08T00:06:27.712Z,34.43
2023-05-08T00:08:55.541Z,34.56
2023-05-08T00:11:22.619Z,34.36
2023-05-08T00:13:49.742Z,34.40
2023-05-08T00:16:16.856Z,34.49
2023-05-08T00:18:44.515Z,34.56
2023-05-08T00:21:11.473Z,34.37
2023-05-08T00:23:38.607Z,34.37
2023-05-08T00:26:05.574Z,34.49
2023-05-08T00:28:32.443Z,34.59
2023-05-08T00:31:02.534Z,34.59
2023-05-08T00:33:29.460Z,34.64
2023-05-08T00:36:03.640Z,34.61
2023-05-08T00:38:34.411Z,34.71
2023-05-08T00:41:01.863Z,34.75
2023-05-08T00:43:29.261Z,34.82
2023-05-08T00:45:56.874Z,34.98
2023-05-08T00:48:24.061Z,35.22
2023-05-08T00:50:52.668Z,35.35
2023-05-08T00:53:19.867Z,35.29
2023-05-08T00:55:46.884Z,35.29
2023-05-08T00:58:13.802Z,35.31
2023-05-08T01:00:42.192Z,35.27
2023-05-08T01:03:09.667Z,35.41
2023-05-08T01:05:36.850Z,35.54
2023-05-08T01:08:04.311Z,35.61
2023-05-08T01:10:53.826Z,35.63
2023-05-08T01:13:37.821Z,35.77
2023-05-08T01:16:13.347Z,35.81
2023-05-08T01:18:44.840Z,35.70
2023-05-08T01:21:21.498Z,35.65
2023-05-08T01:24:13.284Z,35.52
2023-05-08T01:27:09.458Z,35.49
2023-05-08T01:30:07.454Z,35.41
2023-05-08T01:32:39.440Z,35.54
2023-05-08T01:35:33.181Z,35.55
2023-05-08T01:38:03.573Z,35.41
2023-05-08T01:40:45.772Z,35.67
2023-05-08T01:44:06.770Z,35.76
2023-05-08T01:46:34.440Z,35.71
2023-05-08T01:49:12.717Z,35.62
2023-05-08T01:51:45.270Z,35.69
2023-05-08T01:54:16.638Z,35.79
2023-05-08T01:56:44.903Z,35.93
2023-05-08T01:59:14.385Z,35.89
2023-05-08T02:01:43.074Z,35.89
2023-05-08T02:04:10.248Z,35.89
2023-05-08T02:06:37.233Z,36.05
2023-05-08T02:09:04.221Z,36.15
2023-05-08T02:11:32.106Z,35.97
2023-05-08T02:13:59.133Z,36.18
2023-05-08T02:16:26.173Z,36.16
2023-05-08T02:18:54.451Z,36.21
2023-05-08T02:21:21.342Z,36.24
2023-05-08T02:23:48.261Z,36.20
2023-05-08T02:26:15.815Z,36.21
2023-05-08T02:28:42.743Z,36.40
2023-05-08T02:31:10.420Z,36.47
2023-05-08T02:33:38.565Z,36.47
2023-05-08T02:36:05.853Z,36.51
2023-05-08T02:38:33.913Z,36.56
2023-05-08T02:41:02.000Z,36.89
2023-05-08T02:43:29.105Z,36.89
2023-05-08T02:45:58.942Z,36.76
2023-05-08T02:48:37.098Z,36.85
2023-05-08T02:51:16.496Z,36.82
2023-05-08T02:53:47.299Z,36.88
2023-05-08T02:56:36.800Z,36.81
2023-05-08T02:59:21.469Z,36.93
2023-05-08T03:02:22.429Z,37.15
2023-05-08T03:04:55.695Z,37.22
2023-05-08T03:07:24.614Z,37.29
2023-05-08T03:09:55.755Z,37.36
2023-05-08T03:12:24.929Z,37.27
2023-05-08T03:15:01.005Z,37.30
2023-05-08T03:17:28.884Z,37.25
2023-05-08T03:19:57.828Z,36.99
2023-05-08T03:22:25.359Z,36.99
2023-05-08T03:24:52.921Z,37.01
2023-05-08T03:27:20.505Z,36.93
2023-05-08T03:29:47.979Z,36.93
2023-05-08T03:32:15.035Z,36.95
2023-05-08T03:34:42.273Z,36.88
2023-05-08T03:37:09.199Z,36.71
2023-05-08T03:39:36.302Z,36.75
2023-05-08T03:42:03.522Z,36.80
2023-05-08T03:44:30.525Z,36.87
2023-05-08T03:46:58.645Z,37.02
2023-05-08T03:49:26.819Z,37.00
2023-05-08T03:51:54.913Z,36.99
2023-05-08T03:54:25.507Z,36.94
2023-05-08T03:56:54.149Z,36.96
2023-05-08T04:00:03.607Z,36.75
2023-05-08T04:02:54.441Z,36.69
2023-05-08T04:05:48.345Z,36.65
2023-05-08T04:08:30.361Z,36.52
2023-05-08T04:11:21.233Z,36.38
2023-05-08T04:13:50.637Z,36.08
2023-05-08T04:16:22.077Z,36.12
2023-05-08T04:18:50.369Z,35.86
2023-05-08T04:21:22.901Z,35.42
2023-05-08T04:23:50.952Z,35.22
2023-05-08T04:26:18.511Z,35.27
2023-05-08T04:28:46.996Z,35.37
2023-05-08T04:31:16.070Z,35.02
2023-05-08T04:33:46.832Z,35.01
2023-05-08T04:36:14.361Z,34.93
2023-05-08T04:38:42.634Z,35.02
2023-05-08T04:41:10.025Z,34.89
2023-05-08T04:43:38.223Z,34.84
2023-05-08T04:46:06.264Z,34.68
2023-05-08T04:48:34.058Z,34.47
2023-05-08T04:51:01.453Z,34.28
2023-05-08T04:53:28.581Z,34.30
2023-05-08T04:55:55.515Z,34.42
2023-05-08T04:58:22.646Z,34.24
2023-05-08T05:00:50.778Z,33.88
2023-05-08T05:03:18.060Z,33.68
2023-05-08T05:05:45.693Z,33.72
2023-05-08T05:08:12.832Z,33.70
2023-05-08T05:10:40.812Z,33.50
2023-05-08T05:13:08.141Z,33.66
2023-05-08T05:15:35.558Z,33.87
2023-05-08T05:18:02.732Z,33.79
2023-05-08T05:20:32.397Z,34.09
2023-05-08T05:22:59.308Z,34.38
2023-05-08T05:25:26.182Z,34.34
2023-05-08T05:27:53.255Z,34.16
2023-05-08T05:30:20.396Z,34.27
2023-05-08T05:32:47.782Z,34.41
2023-05-08T05:35:15.384Z,34.21
2023-05-08T05:37:43.240Z,34.02
2023-05-08T05:40:13.479Z,34.11
2023-05-08T05:42:41.249Z,33.71
2023-05-08T05:45:08.988Z,33.24
2023-05-08T05:47:35.952Z,33.31
2023-05-08T05:50:04.794Z,33.25
2023-05-08T05:52:33.358Z,33.07
2023-05-08T05:55:00.603Z,32.74
2023-05-08T05:57:27.852Z,32.79
2023-05-08T05:59:55.071Z,32.79
2023-05-08T06:02:22.729Z,32.51
2023-05-08T06:04:52.082Z,32.49
2023-05-08T06:07:20.923Z,32.73
2023-05-08T06:09:48.162Z,32.53
2023-05-08T06:12:15.097Z,32.37
2023-05-08T06:14:42.000Z,32.25
2023-05-08T06:17:09.099Z,32.07
2023-05-08T06:19:36.887Z,32.06
2023-05-08T06:22:03.689Z,32.22
2023-05-08T06:24:30.672Z,32.11
2023-05-08T06:26:57.522Z,31.98
2023-05-08T06:29:24.582Z,31.57
2023-05-08T06:31:51.460Z,31.44
2023-05-08T06:34:18.364Z,31.43
2023-05-08T06:36:45.542Z,31.44
2023-05-08T06:39:12.746Z,30.58
2023-05-08T06:41:39.694Z,30.77
2023-05-08T06:44:06.501Z,30.93
2023-05-08T06:46:33.698Z,31.01
2023-05-08T06:49:00.949Z,30.97
2023-05-08T06:51:27.811Z,30.72
2023-05-08T06:53:54.695Z,30.32
2023-05-08T06:56:22.988Z,30.35
2023-05-08T06:58:57.057Z,30.27
2023-05-08T07:01:31.756Z,29.92
2023-05-08T07:03:58.993Z,30.00
2023-05-08T07:06:25.769Z,30.50
2023-05-08T07:08:52.716Z,30.32
2023-05-08T07:11:19.524Z,30.04
2023-05-08T07:13:48.425Z,30.03
2023-05-08T07:16:16.400Z,30.07
2023-05-08T07:18:43.898Z,29.87
2023-05-08T07:21:11.056Z,29.66
2023-05-08T07:23:37.972Z,29.39
2023-05-08T07:26:04.854Z,28.98
2023-05-08T07:28:31.735Z,28.50
2023-05-08T07:30:58.532Z,28.50
2023-05-08T07:33:25.502Z,28.84
2023-05-08T07:35:52.883Z,28.91
2023-05-08T07:38:19.624Z,28.85
2023-05-08T07:40:46.407Z,28.22
2023-05-08T07:43:15.048Z,27.83
2023-05-08T07:45:41.830Z,27.36
2023-05-08T07:48:09.049Z,27.26
2023-05-08T07:50:36.533Z,27.72
2023-05-08T07:53:03.360Z,27.56
2023-05-08T07:55:30.247Z,27.40
2023-05-08T07:57:57.105Z,27.21
2023-05-08T08:00:24.108Z,27.45
2023-05-08T08:02:51.045Z,27.58
2023-05-08T08:05:18.036Z,27.76
2023-05-08T08:07:45.106Z,28.02
2023-05-08T08:10:12.564Z,28.25
2023-05-08T08:12:39.491Z,27.23
2023-05-08T08:15:06.793Z,27.09
2023-05-08T08:17:33.636Z,27.11
2023-05-08T08:20:00.866Z,27.60
2023-05-08T08:22:27.667Z,27.83
2023-05-08T08:24:57.825Z,27.49
2023-05-08T08:27:24.661Z,27.01
2023-05-08T08:29:58.531Z,26.80
2023-05-08T08:32:31.902Z,26.72
2023-05-08T08:34:58.989Z,26.28
2023-05-08T08:37:26.362Z,26.28
2023-05-08T08:39:53.756Z,26.00
2023-05-08T08:42:20.566Z,25.92
2023-05-08T08:44:47.479Z,26.04
2023-05-08T08:47:14.571Z,25.51
2023-05-08T08:49:43.757Z,25.78
2023-05-08T08:52:27.028Z,25.38
2023-05-08T08:54:53.998Z,25.39
2023-05-08T08:57:20.780Z,25.16
2023-05-08T08:59:47.568Z,25.41
2023-05-08T09:02:18.278Z,25.93
2023-05-08T09:04:45.462Z,25.91
2023-05-08T09:07:12.286Z,25.37
2023-05-08T09:09:41.031Z,24.55
2023-05-08T09:12:08.308Z,24.21
2023-05-08T09:14:35.628Z,24.35
2023-05-08T09:17:02.622Z,24.40
2023-05-08T09:19:29.719Z,24.42
2023-05-08T09:21:59.327Z,24.67
2023-05-08T09:24:29.127Z,24.45
2023-05-08T09:26:57.565Z,24.34
2023-05-08T09:29:24.400Z,23.76
2023-05-08T09:31:52.588Z,23.88
2023-05-08T09:34:28.109Z,23.98
2023-05-08T09:36:55.875Z,24.80
2023-05-08T09:39:24.634Z,23.84
2023-05-08T09:41:58.937Z,22.74
2023-05-08T09:44:25.709Z,22.49
2023-05-08T09:46:53.939Z,23.06
2023-05-08T09:49:20.763Z,24.13
2023-05-08T09:51:54.081Z,24.60
2023-05-08T09:54:20.990Z,24.05
2023-05-08T09:56:47.824Z,23.71
2023-05-08T09:59:28.457Z,23.43
2023-05-08T10:01:56.010Z,23.73
2023-05-08T10:09:12.728Z,23.04
2023-05-08T10:11:52.093Z,22.74
2023-05-08T10:14:19.767Z,22.43
2023-05-08T10:16:49.259Z,22.63
2023-05-08T10:19:17.571Z,22.23
2023-05-08T10:21:49.454Z,22.59
2023-05-08T10:24:17.986Z,22.60
2023-05-08T10:27:17.274Z,22.74
2023-05-08T10:29:52.269Z,22.02
2023-05-08T10:32:23.584Z,21.95
2023-05-08T10:34:53.193Z,22.19
2023-05-08T10:37:20.188Z,22.08
2023-05-08T10:39:47.141Z,21.91
2023-05-08T10:42:14.398Z,22.22
2023-05-08T10:44:41.374Z,22.86
2023-05-08T10:47:15.177Z,22.74
2023-05-08T10:49:49.831Z,22.44
2023-05-08T10:52:21.207Z,22.69
2023-05-08T10:54:54.036Z,23.47
2023-05-08T10:57:20.948Z,22.55
2023-05-08T10:59:48.122Z,22.20
2023-05-08T11:02:15.772Z,21.93
2023-05-08T11:04:43.945Z,21.95
2023-05-08T11:07:11.640Z,22.00
2023-05-08T11:09:41.804Z,21.51
2023-05-08T11:12:27.319Z,21.30
2023-05-08T11:15:03.122Z,20.85
2023-05-08T11:17:30.059Z,20.91
2023-05-08T11:19:58.798Z,20.98
2023-05-08T11:22:28.532Z,20.80
2023-05-08T11:24:59.409Z,21.30
2023-05-08T11:27:32.715Z,21.64
2023-05-08T11:30:22.879Z,21.39
2023-05-08T11:32:57.201Z,20.37
2023-05-08T11:35:49.040Z,20.31
2023-05-08T11:38:27.967Z,20.03
2023-05-08T11:41:00.868Z,20.07
2023-05-08T11:43:33.897Z,20.79
2023-05-08T11:46:04.142Z,20.57
2023-05-08T11:48:31.793Z,20.21
2023-05-08T11:51:02.368Z,20.51
2023-05-08T11:53:30.568Z,19.79
2023-05-08T11:55:57.605Z,19.46
2023-05-08T11:58:24.678Z,19.80
2023-05-08T12:00:51.972Z,19.99
2023-05-08T12:03:20.384Z,20.10
2023-05-08T12:05:47.662Z,19.73
2023-05-08T12:08:14.876Z,19.75
2023-05-08T12:10:53.944Z,19.83
2023-05-08T12:13:30.332Z,19.90
2023-05-08T12:15:58.919Z,19.66
2023-05-08T12:18:26.849Z,20.10
2023-05-08T12:20:54.275Z,20.15
2023-05-08T12:23:21.219Z,20.04
2023-05-08T12:25:48.172Z,19.78
2023-05-08T12:28:15.086Z,19.34
2023-05-08T12:30:41.926Z,19.32
2023-05-08T12:33:08.866Z,19.47
2023-05-08T12:35:35.824Z,19.53
2023-05-08T12:38:03.593Z,19.97
2023-05-08T12:40:32.442Z,20.06
2023-05-08T12:43:03.514Z,19.91
2023-05-08T12:45:33.752Z,19.75
2023-05-08T12:48:04.864Z,19.80
2023-05-08T12:50:35.816Z,19.60
2023-05-08T12:53:06.786Z,19.42
2023-05-08T12:55:35.365Z,19.92
2023-05-08T12:58:15.195Z,20.16
2023-05-08T13:00:46.749Z,19.99
2023-05-08T13:03:21.486Z,20.07
2023-05-08T13:05:48.520Z,19.96
2023-05-08T13:08:15.637Z,19.79
2023-05-08T13:10:52.966Z,19.93
2023-05-08T13:13:24.999Z,19.83
2023-05-08T13:15:53.095Z,19.83
2023-05-08T13:18:21.891Z,19.33
2023-05-08T13:20:48.966Z,18.86
2023-05-08T13:23:16.004Z,18.68
2023-05-08T13:25:43.066Z,18.98
2023-05-08T13:28:10.257Z,18.89
2023-05-08T13:30:37.917Z,18.62
2023-05-08T13:33:05.073Z,18.42
2023-05-08T13:35:32.873Z,17.94
2023-05-08T13:38:01.769Z,17.76
2023-05-08T13:40:31.613Z,17.44
2023-05-08T13:43:00.804Z,17.46
2023-05-08T13:45:30.819Z,17.54
2023-05-08T13:48:00.914Z,17.35
2023-05-08T13:50:30.366Z,17.00
2023-05-08T13:53:00.866Z,16.95
2023-05-08T13:55:29.929Z,16.90
2023-05-08T13:57:59.784Z,17.30
2023-05-08T14:00:30.174Z,17.40
2023-05-08T14:02:59.927Z,17.56
2023-05-08T14:05:28.900Z,17.60
2023-05-08T14:07:58.254Z,17.53
2023-05-08T14:10:27.746Z,17.88
2023-05-08T14:12:57.801Z,18.17
2023-05-08T14:15:36.563Z,18.05
2023-05-08T14:18:07.011Z,18.04
2023-05-08T14:20:37.203Z,17.93
2023-05-08T14:23:06.446Z,17.74
2023-05-08T14:25:35.846Z,17.81
2023-05-08T14:28:06.880Z,17.92
2023-05-08T14:35:20.870Z,18.66
2023-05-08T14:37:50.879Z,19.04
2023-05-08T14:46:31.388Z,18.46
2023-05-08T14:48:58.655Z,18.41
2023-05-08T14:51:25.877Z,18.35
2023-05-08T14:53:52.869Z,18.08
2023-05-08T14:56:24.495Z,17.61
2023-05-08T14:58:52.144Z,17.65
2023-05-08T15:01:19.133Z,17.79
2023-05-08T15:03:52.996Z,18.19
2023-05-08T15:06:22.086Z,18.17
2023-05-08T15:08:49.235Z,18.43
2023-05-08T15:11:16.239Z,18.65
2023-05-08T15:13:43.236Z,18.70
2023-05-08T15:16:10.453Z,18.73
2023-05-08T15:18:37.334Z,18.78
2023-05-08T15:21:04.756Z,18.90
2023-05-08T15:23:31.874Z,18.94
2023-05-08T15:25:58.703Z,19.04
2023-05-08T15:28:25.755Z,19.35
2023-05-08T15:30:52.690Z,19.88
2023-05-08T15:33:20.030Z,20.16
2023-05-08T15:35:47.179Z,20.32
2023-05-08T15:38:14.125Z,20.48
2023-05-08T15:40:41.179Z,20.58
2023-05-08T15:43:08.177Z,20.86
2023-05-08T15:45:35.087Z,21.01
2023-05-08T15:48:02.249Z,20.88
2023-05-08T15:50:29.261Z,20.94
2023-05-08T15:52:56.321Z,21.02
2023-05-08T15:55:23.484Z,21.23
2023-05-08T15:57:50.457Z,21.25
2023-05-08T16:00:17.960Z,21.41
2023-05-08T16:02:44.945Z,21.55
2023-05-08T16:05:12.096Z,22.09
2023-05-08T16:07:39.361Z,22.53
2023-05-08T16:10:07.440Z,22.70
2023-05-08T16:12:34.650Z,22.71
2023-05-08T16:15:01.573Z,22.92
2023-05-08T16:17:28.672Z,23.08
2023-05-08T16:19:55.698Z,23.16
2023-05-08T16:22:23.322Z,23.16
2023-05-08T16:24:52.708Z,23.36
2023-05-08T16:27:19.687Z,23.35
2023-05-08T16:29:46.530Z,23.46
2023-05-08T16:32:13.485Z,23.60
2023-05-08T16:34:40.245Z,23.73
2023-05-08T16:37:07.112Z,23.81
2023-05-08T16:39:34.774Z,23.58
2023-05-08T16:42:01.950Z,23.60
2023-05-08T16:44:29.230Z,23.86
2023-05-08T16:46:56.284Z,24.14
2023-05-08T16:49:23.168Z,24.54
2023-05-08T16:51:50.396Z,24.68
2023-05-08T16:54:17.316Z,24.64
2023-05-08T16:56:44.265Z,24.64
2023-05-08T16:59:11.381Z,24.63
2023-05-08T17:01:38.397Z,24.92
2023-05-08T17:04:05.454Z,24.94
2023-05-08T17:06:33.181Z,24.92
2023-05-08T17:09:00.021Z,24.85
2023-05-08T17:11:26.877Z,25.04
2023-05-08T17:13:53.873Z,25.22
2023-05-08T17:16:20.842Z,25.24
2023-05-08T17:18:47.996Z,25.42
2023-05-08T17:21:14.869Z,25.67
2023-05-08T17:23:41.938Z,25.92
2023-05-08T17:26:09.455Z,26.15
2023-05-08T17:28:37.218Z,26.29
2023-05-08T17:31:04.061Z,26.54
2023-05-08T17:33:30.958Z,26.62
2023-05-08T17:35:57.724Z,26.42
2023-05-08T17:38:24.544Z,26.57
2023-05-08T17:40:51.639Z,26.50
2023-05-08T17:43:20.510Z,26.65
2023-05-08T17:45:47.728Z,26.65
2023-05-08T17:48:14.652Z,26.97
2023-05-08T17:50:43.665Z,27.16
2023-05-08T17:53:10.578Z,27.33
2023-05-08T17:55:37.622Z,27.47
2023-05-08T17:58:04.555Z,27.54
2023-05-08T18:00:31.596Z,27.69
2023-05-08T18:02:58.697Z,27.85
2023-05-08T18:05:25.751Z,27.78
2023-05-08T18:07:54.010Z,27.75
2023-05-08T18:10:21.325Z,27.90
2023-05-08T18:12:48.226Z,28.01
2023-05-08T18:15:15.033Z,28.11
2023-05-08T18:17:42.330Z,28.28
2023-05-08T18:20:10.009Z,28.28
2023-05-08T18:22:36.883Z,28.39
2023-05-08T18:25:04.016Z,28.35
2023-05-08T18:27:33.481Z,28.46
2023-05-08T18:30:00.523Z,28.46
2023-05-08T18:32:27.971Z,28.49
2023-05-08T18:34:55.774Z,28.76
2023-05-08T18:37:23.312Z,28.79
2023-05-08T18:39:50.424Z,29.06
2023-05-08T18:42:17.308Z,29.35
2023-05-08T18:44:44.427Z,29.40
2023-05-08T18:47:11.369Z,29.35
2023-05-08T18:49:38.381Z,29.56
2023-05-08T18:52:05.538Z,29.61
2023-05-08T18:54:32.338Z,29.65
2023-05-08T18:56:59.234Z,29.54
2023-05-08T18:59:26.279Z,29.51
2023-05-08T19:01:53.133Z,29.51
2023-05-08T19:04:20.263Z,29.44
2023-05-08T19:06:47.207Z,29.50
2023-05-08T19:09:14.161Z,29.44
2023-05-08T19:11:41.101Z,29.41
2023-05-08T19:14:07.980Z,29.48
2023-05-08T19:16:34.820Z,29.72
2023-05-08T19:19:01.733Z,30.03
2023-05-08T19:21:29.390Z,30.21
2023-05-08T19:23:56.195Z,30.43
2023-05-08T19:26:23.501Z,30.79
2023-05-08T19:28:50.370Z,31.17
2023-05-08T19:31:17.255Z,31.44
2023-05-08T19:33:44.424Z,31.80
2023-05-08T19:36:11.369Z,31.95
2023-05-08T19:38:40.128Z,32.25
2023-05-08T19:41:07.347Z,32.42
2023-05-08T19:43:34.200Z,32.67
2023-05-08T19:46:01.567Z,32.75
2023-05-08T19:48:28.554Z,33.15
2023-05-08T19:50:55.599Z,33.56
2023-05-08T19:53:23.574Z,33.65
2023-05-08T19:55:50.501Z,33.85
2023-05-08T19:58:18.055Z,34.16
2023-05-08T20:00:50.872Z,34.20
2023-05-08T20:03:18.358Z,34.20
2023-05-08T20:05:45.409Z,34.21
2023-05-08T20:08:12.211Z,34.68
2023-05-08T20:10:39.150Z,35.24
2023-05-08T20:13:06.037Z,35.14
2023-05-08T20:15:32.989Z,35.22
2023-05-08T20:17:59.911Z,34.92
2023-05-08T20:20:29.298Z,34.85
2023-05-08T20:22:56.639Z,34.90
2023-05-08T20:25:23.745Z,34.77
2023-05-08T20:27:50.589Z,34.80
2023-05-08T20:30:17.504Z,34.40
2023-05-08T20:32:44.355Z,33.98
2023-05-08T20:35:11.521Z,33.85
2023-05-08T20:37:43.855Z,33.97
2023-05-08T20:40:11.674Z,34.24
2023-05-08T20:42:40.802Z,34.48
2023-05-08T20:45:11.530Z,34.60
2023-05-08T20:47:38.442Z,34.75
2023-05-08T20:50:06.460Z,34.76
2023-05-08T20:52:34.600Z,35.18
2023-05-08T20:55:03.139Z,35.41
2023-05-08T20:57:29.981Z,35.64
2023-05-08T20:59:56.838Z,35.78
2023-05-08T21:02:23.896Z,35.53
2023-05-08T21:04:50.797Z,35.50
2023-05-08T21:07:17.842Z,35.67
2023-05-08T21:09:44.705Z,35.26
2023-05-08T21:12:11.648Z,34.90
2023-05-08T21:14:38.590Z,34.34
2023-05-08T21:17:05.411Z,34.05
2023-05-08T21:19:32.356Z,33.83
2023-05-08T21:21:59.321Z,33.71
2023-05-08T21:24:26.452Z,33.54
2023-05-08T21:26:53.607Z,33.45
2023-05-08T21:29:20.653Z,33.50
2023-05-08T21:31:47.599Z,33.59
2023-05-08T21:34:15.675Z,33.62
2023-05-08T21:36:42.490Z,33.50
2023-05-08T21:39:09.590Z,33.40
2023-05-08T21:41:36.663Z,33.55
2023-05-08T21:44:03.524Z,33.70
2023-05-08T21:46:30.874Z,33.77
2023-05-08T21:48:58.064Z,33.78
2023-05-08T21:51:25.728Z,33.66
2023-05-08T21:53:52.737Z,33.66
2023-05-08T21:56:19.875Z,33.70
2023-05-08T21:58:46.792Z,33.73
2023-05-08T22:01:17.728Z,33.56
2023-05-08T22:03:45.526Z,33.59
2023-05-08T22:06:12.654Z,33.63
2023-05-08T22:08:39.478Z,33.69
2023-05-08T22:11:06.291Z,33.74
2023-05-08T22:13:34.637Z,33.82
2023-05-08T22:16:01.446Z,33.73
2023-05-08T22:18:28.474Z,33.66
2023-05-08T22:20:57.012Z,33.70
2023-05-08T22:23:23.908Z,33.83
2023-05-08T22:25:51.429Z,33.84
2023-05-08T22:28:18.292Z,33.67
2023-05-08T22:30:45.275Z,33.65
2023-05-08T22:33:12.285Z,33.72
2023-05-08T22:35:39.166Z,33.88
2023-05-08T22:38:06.150Z,34.08
2023-05-08T22:40:33.536Z,34.13
2023-05-08T22:43:00.794Z,34.27
2023-05-08T22:45:27.767Z,34.43
2023-05-08T22:47:57.285Z,34.61
2023-05-08T22:50:24.235Z,34.87
2023-05-08T22:52:51.040Z,35.05
2023-05-08T22:55:17.990Z,35.11
2023-05-08T22:57:45.927Z,35.19
2023-05-08T23:00:13.725Z,35.18
2023-05-08T23:02:41.771Z,35.31
2023-05-08T23:05:09.556Z,35.45
2023-05-08T23:07:38.370Z,35.59
2023-05-08T23:10:06.830Z,35.85
2023-05-08T23:12:33.857Z,36.09
2023-05-08T23:15:01.936Z,36.19
2023-05-08T23:17:28.992Z,36.21
2023-05-08T23:19:56.907Z,36.29
2023-05-08T23:22:24.779Z,36.31
2023-05-08T23:24:52.250Z,36.27
2023-05-08T23:27:19.919Z,36.37
2023-05-08T23:29:47.716Z,36.60
2023-05-08T23:32:16.074Z,36.74
2023-05-08T23:34:43.329Z,36.83
2023-05-08T23:37:11.706Z,36.92
2023-05-08T23:39:41.440Z,36.86
2023-05-08T23:42:09.416Z,36.84
2023-05-08T23:44:36.443Z,36.89
2023-05-08T23:47:03.564Z,36.88
2023-05-08T23:49:30.689Z,36.96
2023-05-08T23:51:58.810Z,37.04
2023-05-08T23:54:25.729Z,37.07
2023-05-08T23:56:52.564Z,37.19
2023-05-08T23:59:19.557Z,37.31
